sensor_id;sensor_type;location;lat;lon;timestamp;P1;durP1;ratioP1;P2;durP2;ratioP2
68987;SDS011;56038;46.080;11.116;2023-01-08T00:02:44;17.08;;;11.70;;
68987;SDS011;56038;46.080;11.116;2023-01-08T00:07:48;15.35;;;11.70;;
68987;SDS011;56038;46.080;11.116;2023-01-08T00:12:53;18.27;;;11.35;;
68987;SDS011;56038;46.080;11.116;2023-01-08T00:17:55;14.27;;;11.00;;
68987;SDS011;56038;46.080;11.116;2023-01-08T00:22:57;14.23;;;10.90;;
68987;SDS011;56038;46.080;11.116;2023-01-08T00:28:00;15.45;;;11.55;;
68987;SDS011;56038;46.080;11.116;2023-01-08T00:33:02;13.20;;;10.60;;
68987;SDS011;56038;46.080;11.116;2023-01-08T00:38:05;13.82;;;10.57;;
68987;SDS011;56038;46.080;11.116;2023-01-08T00:43:08;13.85;;;10.60;;
68987;SDS011;56038;46.080;11.116;2023-01-08T00:48:10;15.15;;;10.68;;
68987;SDS011;56038;46.080;11.116;2023-01-08T00:53:12;15.98;;;10.70;;
68987;SDS011;56038;46.080;11.116;2023-01-08T00:58:15;14.02;;;11.25;;
68987;SDS011;56038;46.080;11.116;2023-01-08T01:03:17;16.65;;;10.73;;
68987;SDS011;56038;46.080;11.116;2023-01-08T01:08:19;14.65;;;10.93;;
68987;SDS011;56038;46.080;11.116;2023-01-08T01:13:22;16.42;;;11.63;;
68987;SDS011;56038;46.080;11.116;2023-01-08T01:18:24;16.90;;;10.93;;
68987;SDS011;56038;46.080;11.116;2023-01-08T01:23:25;15.65;;;10.48;;
68987;SDS011;56038;46.080;11.116;2023-01-08T01:28:29;13.55;;;10.20;;
68987;SDS011;56038;46.080;11.116;2023-01-08T01:33:30;14.98;;;10.50;;
68987;SDS011;56038;46.080;11.116;2023-01-08T01:38:32;14.38;;;9.93;;
68987;SDS011;56038;46.080;11.116;2023-01-08T01:43:37;16.05;;;11.07;;
68987;SDS011;56038;46.080;11.116;2023-01-08T01:48:40;15.50;;;11.00;;
68987;SDS011;56038;46.080;11.116;2023-01-08T01:53:42;15.52;;;10.20;;
68987;SDS011;56038;46.080;11.116;2023-01-08T01:58:46;16.05;;;10.30;;
68987;SDS011;56038;46.080;11.116;2023-01-08T02:03:47;13.55;;;10.00;;
68987;SDS011;56038;46.080;11.116;2023-01-08T02:08:51;15.07;;;10.52;;
68987;SDS011;56038;46.080;11.116;2023-01-08T02:14:04;13.27;;;10.27;;
68987;SDS011;56038;46.080;11.116;2023-01-08T02:19:13;13.60;;;10.40;;
68987;SDS011;56038;46.080;11.116;2023-01-08T02:24:22;12.52;;;9.88;;
68987;SDS011;56038;46.080;11.116;2023-01-08T02:29:32;16.63;;;9.82;;
68987;SDS011;56038;46.080;11.116;2023-01-08T02:34:34;17.58;;;10.00;;
68987;SDS011;56038;46.080;11.116;2023-01-08T02:39:38;15.18;;;9.93;;
68987;SDS011;56038;46.080;11.116;2023-01-08T02:44:54;12.07;;;8.98;;
68987;SDS011;56038;46.080;11.116;2023-01-08T02:50:03;11.23;;;8.73;;
68987;SDS011;56038;46.080;11.116;2023-01-08T02:55:12;11.77;;;9.05;;
68987;SDS011;56038;46.080;11.116;2023-01-08T03:00:17;14.10;;;9.80;;
68987;SDS011;56038;46.080;11.116;2023-01-08T03:05:23;12.13;;;9.23;;
68987;SDS011;56038;46.080;11.116;2023-01-08T03:10:30;10.40;;;8.85;;
68987;SDS011;56038;46.080;11.116;2023-01-08T03:15:35;12.20;;;9.48;;
68987;SDS011;56038;46.080;11.116;2023-01-08T03:20:42;12.02;;;9.13;;
68987;SDS011;56038;46.080;11.116;2023-01-08T03:25:46;13.02;;;9.25;;
68987;SDS011;56038;46.080;11.116;2023-01-08T03:30:49;15.93;;;9.38;;
68987;SDS011;56038;46.080;11.116;2023-01-08T03:35:54;13.15;;;8.70;;
68987;SDS011;56038;46.080;11.116;2023-01-08T03:40:59;14.38;;;9.43;;
68987;SDS011;56038;46.080;11.116;2023-01-08T03:46:06;14.07;;;8.77;;
68987;SDS011;56038;46.080;11.116;2023-01-08T03:51:12;13.35;;;8.65;;
68987;SDS011;56038;46.080;11.116;2023-01-08T03:56:14;11.55;;;8.88;;
68987;SDS011;56038;46.080;11.116;2023-01-08T04:01:17;12.50;;;9.23;;
68987;SDS011;56038;46.080;11.116;2023-01-08T04:06:19;11.98;;;8.60;;
68987;SDS011;56038;46.080;11.116;2023-01-08T04:11:21;12.43;;;8.75;;
68987;SDS011;56038;46.080;11.116;2023-01-08T04:16:24;11.98;;;9.05;;
68987;SDS011;56038;46.080;11.116;2023-01-08T04:21:26;12.57;;;9.50;;
68987;SDS011;56038;46.080;11.116;2023-01-08T04:26:27;13.45;;;8.65;;
68987;SDS011;56038;46.080;11.116;2023-01-08T04:31:30;13.98;;;9.02;;
68987;SDS011;56038;46.080;11.116;2023-01-08T04:36:32;11.85;;;8.93;;
68987;SDS011;56038;46.080;11.116;2023-01-08T04:41:34;15.65;;;9.38;;
68987;SDS011;56038;46.080;11.116;2023-01-08T04:46:37;14.88;;;9.40;;
68987;SDS011;56038;46.080;11.116;2023-01-08T04:51:39;11.57;;;8.90;;
68987;SDS011;56038;46.080;11.116;2023-01-08T04:56:41;12.98;;;8.93;;
68987;SDS011;56038;46.080;11.116;2023-01-08T05:01:44;11.35;;;8.70;;
68987;SDS011;56038;46.080;11.116;2023-01-08T05:06:46;16.45;;;9.98;;
68987;SDS011;56038;46.080;11.116;2023-01-08T05:11:47;11.80;;;8.93;;
68987;SDS011;56038;46.080;11.116;2023-01-08T05:16:50;13.35;;;8.93;;
68987;SDS011;56038;46.080;11.116;2023-01-08T05:21:52;13.40;;;9.25;;
68987;SDS011;56038;46.080;11.116;2023-01-08T05:26:54;10.88;;;8.90;;
68987;SDS011;56038;46.080;11.116;2023-01-08T05:31:57;13.10;;;9.27;;
68987;SDS011;56038;46.080;11.116;2023-01-08T05:36:59;11.80;;;9.38;;
68987;SDS011;56038;46.080;11.116;2023-01-08T05:42:00;11.88;;;9.65;;
68987;SDS011;56038;46.080;11.116;2023-01-08T05:47:03;11.63;;;8.70;;
68987;SDS011;56038;46.080;11.116;2023-01-08T05:52:05;15.35;;;9.50;;
68987;SDS011;56038;46.080;11.116;2023-01-08T05:57:07;13.07;;;9.70;;
68987;SDS011;56038;46.080;11.116;2023-01-08T06:02:10;14.05;;;9.48;;
68987;SDS011;56038;46.080;11.116;2023-01-08T06:07:12;12.75;;;9.77;;
68987;SDS011;56038;46.080;11.116;2023-01-08T06:12:14;12.75;;;9.80;;
68987;SDS011;56038;46.080;11.116;2023-01-08T06:17:17;13.13;;;9.65;;
68987;SDS011;56038;46.080;11.116;2023-01-08T06:22:19;14.70;;;9.60;;
68987;SDS011;56038;46.080;11.116;2023-01-08T06:27:20;12.65;;;9.82;;
68987;SDS011;56038;46.080;11.116;2023-01-08T06:32:24;13.18;;;9.65;;
68987;SDS011;56038;46.080;11.116;2023-01-08T06:37:25;14.90;;;10.00;;
68987;SDS011;56038;46.080;11.116;2023-01-08T06:42:27;12.82;;;8.75;;
68987;SDS011;56038;46.080;11.116;2023-01-08T06:47:30;15.60;;;9.77;;
68987;SDS011;56038;46.080;11.116;2023-01-08T06:52:33;11.20;;;8.50;;
68987;SDS011;56038;46.080;11.116;2023-01-08T06:57:34;13.77;;;9.40;;
68987;SDS011;56038;46.080;11.116;2023-01-08T07:02:40;11.60;;;9.20;;
68987;SDS011;56038;46.080;11.116;2023-01-08T07:07:41;16.92;;;9.10;;
68987;SDS011;56038;46.080;11.116;2023-01-08T07:12:43;12.18;;;9.02;;
68987;SDS011;56038;46.080;11.116;2023-01-08T07:17:46;12.70;;;9.27;;
68987;SDS011;56038;46.080;11.116;2023-01-08T07:22:48;13.63;;;9.15;;
68987;SDS011;56038;46.080;11.116;2023-01-08T07:27:50;11.35;;;8.30;;
68987;SDS011;56038;46.080;11.116;2023-01-08T07:32:56;11.85;;;8.82;;
68987;SDS011;56038;46.080;11.116;2023-01-08T07:37:58;15.57;;;9.00;;
68987;SDS011;56038;46.080;11.116;2023-01-08T07:43:00;11.57;;;9.13;;
68987;SDS011;56038;46.080;11.116;2023-01-08T07:48:05;12.63;;;9.07;;
68987;SDS011;56038;46.080;11.116;2023-01-08T07:53:09;18.98;;;10.98;;
68987;SDS011;56038;46.080;11.116;2023-01-08T07:58:13;10.85;;;9.25;;
68987;SDS011;56038;46.080;11.116;2023-01-08T08:03:16;12.40;;;8.05;;
68987;SDS011;56038;46.080;11.116;2023-01-08T08:08:18;11.02;;;8.95;;
68987;SDS011;56038;46.080;11.116;2023-01-08T08:13:20;14.05;;;9.13;;
68987;SDS011;56038;46.080;11.116;2023-01-08T08:18:23;12.60;;;9.13;;
68987;SDS011;56038;46.080;11.116;2023-01-08T08:23:25;12.70;;;10.05;;
68987;SDS011;56038;46.080;11.116;2023-01-08T08:28:26;13.50;;;9.93;;
68987;SDS011;56038;46.080;11.116;2023-01-08T08:33:30;11.48;;;10.00;;
68987;SDS011;56038;46.080;11.116;2023-01-08T08:38:31;12.82;;;9.52;;
68987;SDS011;56038;46.080;11.116;2023-01-08T08:43:33;10.50;;;8.70;;
68987;SDS011;56038;46.080;11.116;2023-01-08T08:48:37;11.93;;;8.88;;
68987;SDS011;56038;46.080;11.116;2023-01-08T08:53:39;14.65;;;11.00;;
68987;SDS011;56038;46.080;11.116;2023-01-08T08:58:40;17.73;;;11.18;;
68987;SDS011;56038;46.080;11.116;2023-01-08T09:03:45;13.18;;;10.57;;
68987;SDS011;56038;46.080;11.116;2023-01-08T09:08:47;15.60;;;10.82;;
68987;SDS011;56038;46.080;11.116;2023-01-08T09:13:49;14.23;;;10.65;;
68987;SDS011;56038;46.080;11.116;2023-01-08T09:18:52;13.05;;;9.88;;
68987;SDS011;56038;46.080;11.116;2023-01-08T09:23:53;14.23;;;9.98;;
68987;SDS011;56038;46.080;11.116;2023-01-08T09:28:56;12.90;;;9.75;;
68987;SDS011;56038;46.080;11.116;2023-01-08T09:33:59;12.10;;;9.25;;
68987;SDS011;56038;46.080;11.116;2023-01-08T09:39:01;15.07;;;9.57;;
68987;SDS011;56038;46.080;11.116;2023-01-08T09:44:03;16.17;;;10.10;;
68987;SDS011;56038;46.080;11.116;2023-01-08T09:49:10;16.13;;;10.75;;
68987;SDS011;56038;46.080;11.116;2023-01-08T09:54:16;15.60;;;10.60;;
68987;SDS011;56038;46.080;11.116;2023-01-08T09:59:18;15.05;;;11.40;;
68987;SDS011;56038;46.080;11.116;2023-01-08T10:04:22;13.90;;;10.60;;
68987;SDS011;56038;46.080;11.116;2023-01-08T10:09:26;16.02;;;10.13;;
68987;SDS011;56038;46.080;11.116;2023-01-08T10:14:30;14.38;;;9.10;;
68987;SDS011;56038;46.080;11.116;2023-01-08T10:19:35;13.73;;;9.48;;
68987;SDS011;56038;46.080;11.116;2023-01-08T10:24:37;13.57;;;8.60;;
68987;SDS011;56038;46.080;11.116;2023-01-08T10:29:39;13.15;;;8.73;;
68987;SDS011;56038;46.080;11.116;2023-01-08T10:34:46;12.07;;;8.85;;
68987;SDS011;56038;46.080;11.116;2023-01-08T10:39:50;14.10;;;10.18;;
68987;SDS011;56038;46.080;11.116;2023-01-08T10:44:55;13.13;;;9.75;;
68987;SDS011;56038;46.080;11.116;2023-01-08T10:50:03;13.45;;;9.55;;
68987;SDS011;56038;46.080;11.116;2023-01-08T10:55:16;12.38;;;9.18;;
68987;SDS011;56038;46.080;11.116;2023-01-08T11:00:24;12.00;;;9.30;;
68987;SDS011;56038;46.080;11.116;2023-01-08T11:05:33;12.10;;;9.82;;
68987;SDS011;56038;46.080;11.116;2023-01-08T11:10:37;12.70;;;9.70;;
68987;SDS011;56038;46.080;11.116;2023-01-08T11:15:40;13.07;;;9.80;;
68987;SDS011;56038;46.080;11.116;2023-01-08T11:20:43;13.32;;;9.80;;
68987;SDS011;56038;46.080;11.116;2023-01-08T11:25:51;14.05;;;9.95;;
68987;SDS011;56038;46.080;11.116;2023-01-08T11:31:00;12.60;;;10.40;;
68987;SDS011;56038;46.080;11.116;2023-01-08T11:36:11;17.23;;;11.05;;
68987;SDS011;56038;46.080;11.116;2023-01-08T11:41:23;13.30;;;10.30;;
68987;SDS011;56038;46.080;11.116;2023-01-08T11:46:44;15.93;;;11.75;;
68987;SDS011;56038;46.080;11.116;2023-01-08T11:52:05;15.63;;;11.40;;
68987;SDS011;56038;46.080;11.116;2023-01-08T11:57:20;15.90;;;11.68;;
68987;SDS011;56038;46.080;11.116;2023-01-08T12:02:34;16.48;;;12.00;;
68987;SDS011;56038;46.080;11.116;2023-01-08T12:07:54;15.43;;;12.00;;
68987;SDS011;56038;46.080;11.116;2023-01-08T12:13:05;16.20;;;12.07;;
68987;SDS011;56038;46.080;11.116;2023-01-08T12:18:35;18.25;;;12.15;;
68987;SDS011;56038;46.080;11.116;2023-01-08T12:23:51;18.77;;;12.32;;
68987;SDS011;56038;46.080;11.116;2023-01-08T12:29:11;13.68;;;11.07;;
68987;SDS011;56038;46.080;11.116;2023-01-08T12:34:33;16.63;;;11.90;;
68987;SDS011;56038;46.080;11.116;2023-01-08T12:39:45;21.83;;;16.00;;
68987;SDS011;56038;46.080;11.116;2023-01-08T12:44:51;15.82;;;12.05;;
68987;SDS011;56038;46.080;11.116;2023-01-08T12:49:57;18.40;;;11.45;;
68987;SDS011;56038;46.080;11.116;2023-01-08T12:55:14;16.67;;;11.68;;
68987;SDS011;56038;46.080;11.116;2023-01-08T13:00:21;16.17;;;12.10;;
68987;SDS011;56038;46.080;11.116;2023-01-08T13:05:32;14.52;;;11.30;;
68987;SDS011;56038;46.080;11.116;2023-01-08T13:10:37;16.48;;;11.52;;
68987;SDS011;56038;46.080;11.116;2023-01-08T13:15:41;17.38;;;11.27;;
68987;SDS011;56038;46.080;11.116;2023-01-08T13:20:53;18.13;;;13.00;;
68987;SDS011;56038;46.080;11.116;2023-01-08T13:25:58;16.13;;;11.93;;
68987;SDS011;56038;46.080;11.116;2023-01-08T13:31:07;15.55;;;11.02;;
68987;SDS011;56038;46.080;11.116;2023-01-08T13:36:15;16.33;;;11.93;;
68987;SDS011;56038;46.080;11.116;2023-01-08T13:41:27;17.27;;;11.27;;
68987;SDS011;56038;46.080;11.116;2023-01-08T13:46:30;16.38;;;12.05;;
68987;SDS011;56038;46.080;11.116;2023-01-08T13:51:40;16.30;;;12.15;;
68987;SDS011;56038;46.080;11.116;2023-01-08T13:56:45;15.35;;;12.00;;
68987;SDS011;56038;46.080;11.116;2023-01-08T14:01:52;24.10;;;16.70;;
68987;SDS011;56038;46.080;11.116;2023-01-08T14:07:03;16.67;;;12.25;;
68987;SDS011;56038;46.080;11.116;2023-01-08T14:12:14;19.27;;;12.50;;
68987;SDS011;56038;46.080;11.116;2023-01-08T14:17:20;20.10;;;13.35;;
68987;SDS011;56038;46.080;11.116;2023-01-08T14:22:26;17.75;;;12.27;;
68987;SDS011;56038;46.080;11.116;2023-01-08T14:27:33;21.63;;;12.98;;
68987;SDS011;56038;46.080;11.116;2023-01-08T14:32:35;16.35;;;11.18;;
68987;SDS011;56038;46.080;11.116;2023-01-08T14:37:43;19.25;;;12.00;;
68987;SDS011;56038;46.080;11.116;2023-01-08T14:42:46;14.70;;;11.88;;
68987;SDS011;56038;46.080;11.116;2023-01-08T14:47:52;16.17;;;12.05;;
68987;SDS011;56038;46.080;11.116;2023-01-08T14:52:57;17.08;;;12.88;;
68987;SDS011;56038;46.080;11.116;2023-01-08T14:58:07;18.13;;;12.50;;
68987;SDS011;56038;46.080;11.116;2023-01-08T15:03:28;16.98;;;13.25;;
68987;SDS011;56038;46.080;11.116;2023-01-08T15:13:37;18.60;;;11.82;;
68987;SDS011;56038;46.080;11.116;2023-01-08T15:18:42;19.75;;;12.82;;
68987;SDS011;56038;46.080;11.116;2023-01-08T15:23:47;20.38;;;14.50;;
68987;SDS011;56038;46.080;11.116;2023-01-08T15:28:53;25.08;;;14.10;;
68987;SDS011;56038;46.080;11.116;2023-01-08T15:33:58;23.45;;;15.05;;
68987;SDS011;56038;46.080;11.116;2023-01-08T15:39:00;21.27;;;13.95;;
68987;SDS011;56038;46.080;11.116;2023-01-08T15:44:04;31.10;;;19.77;;
68987;SDS011;56038;46.080;11.116;2023-01-08T15:49:06;20.33;;;14.00;;
68987;SDS011;56038;46.080;11.116;2023-01-08T15:54:08;23.77;;;14.98;;
68987;SDS011;56038;46.080;11.116;2023-01-08T15:59:13;19.35;;;13.48;;
68987;SDS011;56038;46.080;11.116;2023-01-08T16:04:14;20.50;;;14.45;;
68987;SDS011;56038;46.080;11.116;2023-01-08T16:09:17;21.20;;;13.63;;
68987;SDS011;56038;46.080;11.116;2023-01-08T16:14:20;18.13;;;14.32;;
68987;SDS011;56038;46.080;11.116;2023-01-08T16:19:22;18.20;;;13.60;;
68987;SDS011;56038;46.080;11.116;2023-01-08T16:24:24;24.67;;;15.30;;
68987;SDS011;56038;46.080;11.116;2023-01-08T16:29:28;22.35;;;15.40;;
68987;SDS011;56038;46.080;11.116;2023-01-08T16:34:30;24.67;;;16.73;;
68987;SDS011;56038;46.080;11.116;2023-01-08T16:39:31;25.15;;;16.00;;
68987;SDS011;56038;46.080;11.116;2023-01-08T16:44:35;21.70;;;13.88;;
68987;SDS011;56038;46.080;11.116;2023-01-08T16:49:37;20.60;;;14.50;;
68987;SDS011;56038;46.080;11.116;2023-01-08T16:54:38;19.17;;;13.23;;
68987;SDS011;56038;46.080;11.116;2023-01-08T16:59:42;18.58;;;14.60;;
68987;SDS011;56038;46.080;11.116;2023-01-08T17:04:43;21.02;;;13.73;;
68987;SDS011;56038;46.080;11.116;2023-01-08T17:09:45;20.30;;;14.32;;
68987;SDS011;56038;46.080;11.116;2023-01-08T17:14:49;18.40;;;14.48;;
68987;SDS011;56038;46.080;11.116;2023-01-08T17:19:51;22.45;;;16.38;;
68987;SDS011;56038;46.080;11.116;2023-01-08T17:24:52;18.08;;;13.85;;
68987;SDS011;56038;46.080;11.116;2023-01-08T17:29:56;19.27;;;14.10;;
68987;SDS011;56038;46.080;11.116;2023-01-08T17:34:57;20.45;;;13.77;;
68987;SDS011;56038;46.080;11.116;2023-01-08T17:40:00;21.70;;;13.70;;
68987;SDS011;56038;46.080;11.116;2023-01-08T17:45:04;18.83;;;14.10;;
68987;SDS011;56038;46.080;11.116;2023-01-08T17:50:07;21.02;;;13.85;;
68987;SDS011;56038;46.080;11.116;2023-01-08T17:55:10;19.95;;;13.13;;
68987;SDS011;56038;46.080;11.116;2023-01-08T18:00:14;16.73;;;12.52;;
68987;SDS011;56038;46.080;11.116;2023-01-08T18:05:16;18.90;;;13.52;;
68987;SDS011;56038;46.080;11.116;2023-01-08T18:10:20;17.98;;;13.55;;
68987;SDS011;56038;46.080;11.116;2023-01-08T18:15:24;23.08;;;15.77;;
68987;SDS011;56038;46.080;11.116;2023-01-08T18:20:25;23.08;;;14.90;;
68987;SDS011;56038;46.080;11.116;2023-01-08T18:25:27;19.67;;;14.13;;
68987;SDS011;56038;46.080;11.116;2023-01-08T18:30:31;20.50;;;14.05;;
68987;SDS011;56038;46.080;11.116;2023-01-08T18:35:33;18.55;;;14.43;;
68987;SDS011;56038;46.080;11.116;2023-01-08T18:40:34;22.48;;;14.68;;
68987;SDS011;56038;46.080;11.116;2023-01-08T18:45:37;21.35;;;14.60;;
68987;SDS011;56038;46.080;11.116;2023-01-08T18:50:40;20.27;;;14.68;;
68987;SDS011;56038;46.080;11.116;2023-01-08T18:55:42;20.45;;;15.35;;
68987;SDS011;56038;46.080;11.116;2023-01-08T19:00:45;42.53;;;26.23;;
68987;SDS011;56038;46.080;11.116;2023-01-08T19:05:47;24.17;;;16.45;;
68987;SDS011;56038;46.080;11.116;2023-01-08T19:10:49;20.17;;;15.00;;
68987;SDS011;56038;46.080;11.116;2023-01-08T19:15:52;20.98;;;16.02;;
68987;SDS011;56038;46.080;11.116;2023-01-08T19:20:54;21.05;;;16.13;;
68987;SDS011;56038;46.080;11.116;2023-01-08T19:25:56;19.42;;;15.40;;
68987;SDS011;56038;46.080;11.116;2023-01-08T19:30:59;18.90;;;13.70;;
68987;SDS011;56038;46.080;11.116;2023-01-08T19:36:02;20.08;;;14.65;;
68987;SDS011;56038;46.080;11.116;2023-01-08T19:41:10;18.02;;;13.18;;
68987;SDS011;56038;46.080;11.116;2023-01-08T19:46:27;19.08;;;13.82;;
68987;SDS011;56038;46.080;11.116;2023-01-08T19:51:31;17.27;;;14.52;;
68987;SDS011;56038;46.080;11.116;2023-01-08T19:56:33;21.92;;;15.40;;
68987;SDS011;56038;46.080;11.116;2023-01-08T20:01:36;20.05;;;14.55;;
68987;SDS011;56038;46.080;11.116;2023-01-08T20:06:41;19.60;;;15.02;;
68987;SDS011;56038;46.080;11.116;2023-01-08T20:11:51;19.73;;;14.65;;
68987;SDS011;56038;46.080;11.116;2023-01-08T20:16:54;22.80;;;15.48;;
68987;SDS011;56038;46.080;11.116;2023-01-08T20:21:57;17.63;;;13.65;;
68987;SDS011;56038;46.080;11.116;2023-01-08T20:26:59;18.45;;;13.25;;
68987;SDS011;56038;46.080;11.116;2023-01-08T20:32:03;17.38;;;13.57;;
68987;SDS011;56038;46.080;11.116;2023-01-08T20:37:05;17.88;;;13.60;;
68987;SDS011;56038;46.080;11.116;2023-01-08T20:42:07;19.20;;;14.23;;
68987;SDS011;56038;46.080;11.116;2023-01-08T20:47:10;16.10;;;12.48;;
68987;SDS011;56038;46.080;11.116;2023-01-08T20:52:12;16.60;;;12.25;;
68987;SDS011;56038;46.080;11.116;2023-01-08T20:57:15;17.45;;;12.90;;
68987;SDS011;56038;46.080;11.116;2023-01-08T21:02:18;15.23;;;12.65;;
68987;SDS011;56038;46.080;11.116;2023-01-08T21:07:20;17.50;;;13.00;;
68987;SDS011;56038;46.080;11.116;2023-01-08T21:12:22;15.18;;;12.05;;
68987;SDS011;56038;46.080;11.116;2023-01-08T21:17:25;15.43;;;11.98;;
68987;SDS011;56038;46.080;11.116;2023-01-08T21:22:27;15.77;;;12.55;;
68987;SDS011;56038;46.080;11.116;2023-01-08T21:27:29;17.20;;;12.85;;
68987;SDS011;56038;46.080;11.116;2023-01-08T21:32:33;17.35;;;12.10;;
68987;SDS011;56038;46.080;11.116;2023-01-08T21:37:36;28.17;;;17.63;;
68987;SDS011;56038;46.080;11.116;2023-01-08T21:42:38;17.33;;;11.40;;
68987;SDS011;56038;46.080;11.116;2023-01-08T21:47:58;16.35;;;11.77;;
68987;SDS011;56038;46.080;11.116;2023-01-08T21:53:00;16.27;;;10.88;;
68987;SDS011;56038;46.080;11.116;2023-01-08T21:58:19;16.65;;;10.85;;
68987;SDS011;56038;46.080;11.116;2023-01-08T22:03:22;13.25;;;11.18;;
68987;SDS011;56038;46.080;11.116;2023-01-08T22:08:25;16.27;;;11.93;;
68987;SDS011;56038;46.080;11.116;2023-01-08T22:13:29;13.65;;;11.05;;
68987;SDS011;56038;46.080;11.116;2023-01-08T22:18:32;14.52;;;11.05;;
68987;SDS011;56038;46.080;11.116;2023-01-08T22:23:34;12.35;;;10.32;;
68987;SDS011;56038;46.080;11.116;2023-01-08T22:28:37;12.73;;;10.85;;
68987;SDS011;56038;46.080;11.116;2023-01-08T22:33:41;12.88;;;9.68;;
68987;SDS011;56038;46.080;11.116;2023-01-08T22:38:43;12.10;;;9.68;;
68987;SDS011;56038;46.080;11.116;2023-01-08T22:43:44;10.40;;;9.30;;
68987;SDS011;56038;46.080;11.116;2023-01-08T22:48:48;12.18;;;10.02;;
68987;SDS011;56038;46.080;11.116;2023-01-08T22:53:49;11.82;;;9.93;;
68987;SDS011;56038;46.080;11.116;2023-01-08T22:58:51;11.88;;;9.48;;
68987;SDS011;56038;46.080;11.116;2023-01-08T23:03:55;11.95;;;9.35;;
68987;SDS011;56038;46.080;11.116;2023-01-08T23:08:58;12.65;;;10.02;;
68987;SDS011;56038;46.080;11.116;2023-01-08T23:14:00;12.77;;;9.55;;
68987;SDS011;56038;46.080;11.116;2023-01-08T23:19:03;13.57;;;9.60;;
68987;SDS011;56038;46.080;11.116;2023-01-08T23:24:05;12.57;;;9.23;;
68987;SDS011;56038;46.080;11.116;2023-01-08T23:29:11;13.10;;;9.60;;
68987;SDS011;56038;46.080;11.116;2023-01-08T23:34:14;11.13;;;9.10;;
68987;SDS011;56038;46.080;11.116;2023-01-08T23:39:16;13.70;;;10.27;;
68987;SDS011;56038;46.080;11.116;2023-01-08T23:44:18;12.15;;;10.13;;
68987;SDS011;56038;46.080;11.116;2023-01-08T23:49:21;11.27;;;10.07;;
68987;SDS011;56038;46.080;11.116;2023-01-08T23:54:23;13.63;;;10.32;;
68987;SDS011;56038;46.080;11.116;2023-01-08T23:59:25;11.13;;;9.35;;
